sensor_id;sensor_type;location;lat;lon;timestamp;P1;durP1;ratioP1;P2;durP2;ratioP2
72501;SDS011;60524;49.874;8.652;2022-07-11T00:02:11;3.55;;;1.20;;
72501;SDS011;60524;49.874;8.652;2022-07-11T00:04:41;3.70;;;1.73;;
72501;SDS011;60524;49.874;8.652;2022-07-11T00:07:07;3.70;;;1.33;;
72501;SDS011;60524;49.874;8.652;2022-07-11T00:09:34;2.03;;;1.30;;
72501;SDS011;60524;49.874;8.652;2022-07-11T00:11:59;3.07;;;1.23;;
72501;SDS011;60524;49.874;8.652;2022-07-11T00:14:25;2.45;;;1.30;;
72501;SDS011;60524;49.874;8.652;2022-07-11T00:16:53;1.90;;;1.35;;
72501;SDS011;60524;49.874;8.652;2022-07-11T00:19:20;1.25;;;1.00;;
72501;SDS011;60524;49.874;8.652;2022-07-11T00:21:49;3.28;;;1.30;;
72501;SDS011;60524;49.874;8.652;2022-07-11T00:24:18;2.90;;;1.27;;
72501;SDS011;60524;49.874;8.652;2022-07-11T00:26:45;4.47;;;1.80;;
72501;SDS011;60524;49.874;8.652;2022-07-11T00:29:16;2.20;;;1.60;;
72501;SDS011;60524;49.874;8.652;2022-07-11T00:31:44;2.60;;;1.30;;
72501;SDS011;60524;49.874;8.652;2022-07-11T00:34:14;5.40;;;1.55;;
72501;SDS011;60524;49.874;8.652;2022-07-11T00:36:42;4.13;;;1.50;;
72501;SDS011;60524;49.874;8.652;2022-07-11T00:39:08;3.10;;;1.40;;
72501;SDS011;60524;49.874;8.652;2022-07-11T00:41:33;3.42;;;1.50;;
72501;SDS011;60524;49.874;8.652;2022-07-11T00:44:04;1.90;;;1.23;;
72501;SDS011;60524;49.874;8.652;2022-07-11T00:46:32;4.00;;;1.60;;
72501;SDS011;60524;49.874;8.652;2022-07-11T00:48:59;3.83;;;1.23;;
72501;SDS011;60524;49.874;8.652;2022-07-11T00:51:25;3.10;;;1.33;;
72501;SDS011;60524;49.874;8.652;2022-07-11T00:53:55;6.15;;;1.40;;
72501;SDS011;60524;49.874;8.652;2022-07-11T00:56:30;4.38;;;1.70;;
72501;SDS011;60524;49.874;8.652;2022-07-11T00:58:56;2.08;;;1.42;;
72501;SDS011;60524;49.874;8.652;2022-07-11T01:01:25;6.63;;;1.30;;
72501;SDS011;60524;49.874;8.652;2022-07-11T01:03:50;2.58;;;1.50;;
72501;SDS011;60524;49.874;8.652;2022-07-11T01:06:18;2.80;;;1.48;;
72501;SDS011;60524;49.874;8.652;2022-07-11T01:08:46;2.10;;;1.40;;
72501;SDS011;60524;49.874;8.652;2022-07-11T01:11:13;5.80;;;1.45;;
72501;SDS011;60524;49.874;8.652;2022-07-11T01:13:43;2.22;;;1.27;;
72501;SDS011;60524;49.874;8.652;2022-07-11T01:16:10;3.22;;;1.30;;
72501;SDS011;60524;49.874;8.652;2022-07-11T01:18:44;2.33;;;1.27;;
72501;SDS011;60524;49.874;8.652;2022-07-11T01:21:18;3.42;;;1.20;;
72501;SDS011;60524;49.874;8.652;2022-07-11T01:23:49;3.03;;;1.85;;
72501;SDS011;60524;49.874;8.652;2022-07-11T01:26:18;7.95;;;1.60;;
72501;SDS011;60524;49.874;8.652;2022-07-11T01:28:45;3.45;;;1.58;;
72501;SDS011;60524;49.874;8.652;2022-07-11T01:31:10;7.57;;;1.35;;
72501;SDS011;60524;49.874;8.652;2022-07-11T01:33:39;4.45;;;1.63;;
72501;SDS011;60524;49.874;8.652;2022-07-11T01:36:05;4.63;;;1.52;;
72501;SDS011;60524;49.874;8.652;2022-07-11T01:38:33;1.63;;;1.27;;
72501;SDS011;60524;49.874;8.652;2022-07-11T01:41:01;2.45;;;1.42;;
72501;SDS011;60524;49.874;8.652;2022-07-11T01:43:26;2.37;;;1.37;;
72501;SDS011;60524;49.874;8.652;2022-07-11T01:45:57;3.92;;;1.45;;
72501;SDS011;60524;49.874;8.652;2022-07-11T01:48:24;2.30;;;1.45;;
72501;SDS011;60524;49.874;8.652;2022-07-11T01:50:55;5.43;;;1.58;;
72501;SDS011;60524;49.874;8.652;2022-07-11T01:53:22;2.25;;;1.40;;
72501;SDS011;60524;49.874;8.652;2022-07-11T01:55:53;2.30;;;1.40;;
72501;SDS011;60524;49.874;8.652;2022-07-11T01:58:19;7.85;;;2.17;;
72501;SDS011;60524;49.874;8.652;2022-07-11T02:00:44;5.93;;;2.00;;
72501;SDS011;60524;49.874;8.652;2022-07-11T02:03:12;5.13;;;1.80;;
72501;SDS011;60524;49.874;8.652;2022-07-11T02:05:41;3.40;;;1.60;;
72501;SDS011;60524;49.874;8.652;2022-07-11T02:08:07;2.72;;;1.80;;
72501;SDS011;60524;49.874;8.652;2022-07-11T02:10:42;3.17;;;2.05;;
72501;SDS011;60524;49.874;8.652;2022-07-11T02:13:12;3.88;;;1.67;;
72501;SDS011;60524;49.874;8.652;2022-07-11T02:15:42;2.75;;;1.80;;
72501;SDS011;60524;49.874;8.652;2022-07-11T02:18:08;3.42;;;2.25;;
72501;SDS011;60524;49.874;8.652;2022-07-11T02:20:36;3.83;;;1.73;;
72501;SDS011;60524;49.874;8.652;2022-07-11T02:23:05;2.97;;;1.65;;
72501;SDS011;60524;49.874;8.652;2022-07-11T02:25:31;3.13;;;1.90;;
72501;SDS011;60524;49.874;8.652;2022-07-11T02:28:00;3.10;;;1.83;;
72501;SDS011;60524;49.874;8.652;2022-07-11T02:30:26;3.85;;;1.80;;
72501;SDS011;60524;49.874;8.652;2022-07-11T02:32:51;5.50;;;1.88;;
72501;SDS011;60524;49.874;8.652;2022-07-11T02:35:17;2.72;;;1.83;;
72501;SDS011;60524;49.874;8.652;2022-07-11T02:37:43;5.25;;;1.77;;
72501;SDS011;60524;49.874;8.652;2022-07-11T02:40:09;4.57;;;1.73;;
72501;SDS011;60524;49.874;8.652;2022-07-11T02:42:37;2.75;;;1.58;;
72501;SDS011;60524;49.874;8.652;2022-07-11T02:45:05;7.45;;;2.13;;
72501;SDS011;60524;49.874;8.652;2022-07-11T02:47:33;2.03;;;1.50;;
72501;SDS011;60524;49.874;8.652;2022-07-11T02:50:01;3.38;;;1.63;;
72501;SDS011;60524;49.874;8.652;2022-07-11T02:52:29;5.72;;;1.58;;
72501;SDS011;60524;49.874;8.652;2022-07-11T02:54:54;3.90;;;1.57;;
72501;SDS011;60524;49.874;8.652;2022-07-11T02:57:24;6.22;;;2.00;;
72501;SDS011;60524;49.874;8.652;2022-07-11T02:59:52;2.97;;;1.67;;
72501;SDS011;60524;49.874;8.652;2022-07-11T03:02:17;1.98;;;1.42;;
72501;SDS011;60524;49.874;8.652;2022-07-11T03:04:42;4.28;;;2.17;;
72501;SDS011;60524;49.874;8.652;2022-07-11T03:07:08;6.97;;;1.73;;
72501;SDS011;60524;49.874;8.652;2022-07-11T03:09:33;4.53;;;1.97;;
72501;SDS011;60524;49.874;8.652;2022-07-11T03:12:01;6.20;;;2.15;;
72501;SDS011;60524;49.874;8.652;2022-07-11T03:14:29;3.65;;;1.70;;
72501;SDS011;60524;49.874;8.652;2022-07-11T03:16:56;3.53;;;1.73;;
72501;SDS011;60524;49.874;8.652;2022-07-11T03:19:22;5.33;;;1.70;;
72501;SDS011;60524;49.874;8.652;2022-07-11T03:21:49;3.85;;;1.83;;
72501;SDS011;60524;49.874;8.652;2022-07-11T03:24:14;4.27;;;1.80;;
72501;SDS011;60524;49.874;8.652;2022-07-11T03:26:40;6.60;;;1.50;;
72501;SDS011;60524;49.874;8.652;2022-07-11T03:29:05;6.03;;;1.48;;
72501;SDS011;60524;49.874;8.652;2022-07-11T03:31:33;4.30;;;1.60;;
72501;SDS011;60524;49.874;8.652;2022-07-11T03:34:01;2.75;;;1.40;;
72501;SDS011;60524;49.874;8.652;2022-07-11T03:36:31;5.20;;;1.70;;
72501;SDS011;60524;49.874;8.652;2022-07-11T03:38:59;3.22;;;1.90;;
72501;SDS011;60524;49.874;8.652;2022-07-11T03:41:26;3.30;;;1.80;;
72501;SDS011;60524;49.874;8.652;2022-07-11T03:43:52;2.22;;;1.55;;
72501;SDS011;60524;49.874;8.652;2022-07-11T03:46:17;3.20;;;1.60;;
72501;SDS011;60524;49.874;8.652;2022-07-11T03:48:42;3.63;;;1.80;;
72501;SDS011;60524;49.874;8.652;2022-07-11T03:51:09;5.85;;;1.70;;
72501;SDS011;60524;49.874;8.652;2022-07-11T03:53:37;5.63;;;2.10;;
72501;SDS011;60524;49.874;8.652;2022-07-11T03:58:32;4.90;;;1.95;;
72501;SDS011;60524;49.874;8.652;2022-07-11T04:00:57;2.25;;;1.58;;
72501;SDS011;60524;49.874;8.652;2022-07-11T04:03:23;4.97;;;1.60;;
72501;SDS011;60524;49.874;8.652;2022-07-11T04:05:51;2.70;;;1.50;;
72501;SDS011;60524;49.874;8.652;2022-07-11T04:08:16;2.92;;;1.58;;
72501;SDS011;60524;49.874;8.652;2022-07-11T04:10:42;3.38;;;1.75;;
72501;SDS011;60524;49.874;8.652;2022-07-11T04:13:09;3.55;;;1.60;;
72501;SDS011;60524;49.874;8.652;2022-07-11T04:18:02;1.87;;;1.37;;
72501;SDS011;60524;49.874;8.652;2022-07-11T04:20:34;2.10;;;1.40;;
72501;SDS011;60524;49.874;8.652;2022-07-11T04:22:59;3.30;;;1.80;;
72501;SDS011;60524;49.874;8.652;2022-07-11T04:25:28;7.10;;;1.92;;
72501;SDS011;60524;49.874;8.652;2022-07-11T04:27:53;8.67;;;2.10;;
72501;SDS011;60524;49.874;8.652;2022-07-11T04:30:18;5.40;;;2.40;;
72501;SDS011;60524;49.874;8.652;2022-07-11T04:32:44;4.00;;;2.03;;
72501;SDS011;60524;49.874;8.652;2022-07-11T04:35:09;6.38;;;2.70;;
72501;SDS011;60524;49.874;8.652;2022-07-11T04:37:34;8.50;;;2.10;;
72501;SDS011;60524;49.874;8.652;2022-07-11T04:40:02;5.22;;;1.83;;
72501;SDS011;60524;49.874;8.652;2022-07-11T04:42:28;3.97;;;1.58;;
72501;SDS011;60524;49.874;8.652;2022-07-11T04:47:20;3.33;;;1.80;;
72501;SDS011;60524;49.874;8.652;2022-07-11T04:49:46;2.73;;;1.80;;
72501;SDS011;60524;49.874;8.652;2022-07-11T04:52:15;3.67;;;1.52;;
72501;SDS011;60524;49.874;8.652;2022-07-11T04:54:43;3.33;;;1.60;;
72501;SDS011;60524;49.874;8.652;2022-07-11T04:57:08;3.87;;;1.80;;
72501;SDS011;60524;49.874;8.652;2022-07-11T04:59:34;3.00;;;1.63;;
72501;SDS011;60524;49.874;8.652;2022-07-11T05:01:59;3.08;;;1.55;;
72501;SDS011;60524;49.874;8.652;2022-07-11T05:04:27;7.80;;;1.77;;
72501;SDS011;60524;49.874;8.652;2022-07-11T05:06:55;3.95;;;1.80;;
72501;SDS011;60524;49.874;8.652;2022-07-11T05:09:20;2.90;;;1.97;;
72501;SDS011;60524;49.874;8.652;2022-07-11T05:11:48;4.67;;;1.90;;
72501;SDS011;60524;49.874;8.652;2022-07-11T05:14:13;2.83;;;1.80;;
72501;SDS011;60524;49.874;8.652;2022-07-11T05:16:39;4.50;;;1.53;;
72501;SDS011;60524;49.874;8.652;2022-07-11T05:19:04;4.55;;;1.60;;
72501;SDS011;60524;49.874;8.652;2022-07-11T05:21:29;4.93;;;1.93;;
72501;SDS011;60524;49.874;8.652;2022-07-11T05:23:57;8.18;;;1.85;;
72501;SDS011;60524;49.874;8.652;2022-07-11T05:28:50;2.77;;;1.43;;
72501;SDS011;60524;49.874;8.652;2022-07-11T05:31:20;3.60;;;1.70;;
72501;SDS011;60524;49.874;8.652;2022-07-11T05:33:48;5.30;;;2.22;;
72501;SDS011;60524;49.874;8.652;2022-07-11T05:36:13;7.10;;;1.83;;
72501;SDS011;60524;49.874;8.652;2022-07-11T05:38:39;2.58;;;1.77;;
72501;SDS011;60524;49.874;8.652;2022-07-11T05:41:06;3.42;;;1.60;;
72501;SDS011;60524;49.874;8.652;2022-07-11T05:43:32;4.28;;;1.80;;
72501;SDS011;60524;49.874;8.652;2022-07-11T05:45:57;3.03;;;1.80;;
72501;SDS011;60524;49.874;8.652;2022-07-11T05:48:26;8.18;;;1.70;;
72501;SDS011;60524;49.874;8.652;2022-07-11T05:50:54;10.00;;;1.80;;
72501;SDS011;60524;49.874;8.652;2022-07-11T05:53:19;2.95;;;1.75;;
72501;SDS011;60524;49.874;8.652;2022-07-11T05:55:45;3.07;;;1.57;;
72501;SDS011;60524;49.874;8.652;2022-07-11T05:58:12;3.28;;;1.70;;
72501;SDS011;60524;49.874;8.652;2022-07-11T06:00:37;3.83;;;1.87;;
72501;SDS011;60524;49.874;8.652;2022-07-11T06:03:03;4.07;;;1.83;;
72501;SDS011;60524;49.874;8.652;2022-07-11T06:05:28;9.93;;;1.67;;
72501;SDS011;60524;49.874;8.652;2022-07-11T06:07:56;6.07;;;1.52;;
72501;SDS011;60524;49.874;8.652;2022-07-11T06:10:40;6.35;;;2.10;;
72501;SDS011;60524;49.874;8.652;2022-07-11T06:13:05;5.33;;;1.70;;
72501;SDS011;60524;49.874;8.652;2022-07-11T06:15:33;5.45;;;1.60;;
72501;SDS011;60524;49.874;8.652;2022-07-11T06:18:02;5.35;;;1.80;;
72501;SDS011;60524;49.874;8.652;2022-07-11T06:20:27;3.67;;;1.42;;
72501;SDS011;60524;49.874;8.652;2022-07-11T06:22:55;1.88;;;1.30;;
72501;SDS011;60524;49.874;8.652;2022-07-11T06:25:23;2.42;;;1.27;;
72501;SDS011;60524;49.874;8.652;2022-07-11T06:27:48;7.25;;;1.77;;
72501;SDS011;60524;49.874;8.652;2022-07-11T06:30:16;5.55;;;1.70;;
72501;SDS011;60524;49.874;8.652;2022-07-11T06:32:41;2.23;;;1.20;;
72501;SDS011;60524;49.874;8.652;2022-07-11T06:35:09;4.63;;;1.30;;
72501;SDS011;60524;49.874;8.652;2022-07-11T06:37:37;3.28;;;1.40;;
72501;SDS011;60524;49.874;8.652;2022-07-11T06:40:07;3.15;;;1.58;;
72501;SDS011;60524;49.874;8.652;2022-07-11T06:42:36;2.17;;;1.33;;
72501;SDS011;60524;49.874;8.652;2022-07-11T06:45:06;3.78;;;1.23;;
72501;SDS011;60524;49.874;8.652;2022-07-11T06:47:34;3.42;;;1.38;;
72501;SDS011;60524;49.874;8.652;2022-07-11T06:50:00;3.63;;;1.20;;
72501;SDS011;60524;49.874;8.652;2022-07-11T06:52:27;1.52;;;1.13;;
72501;SDS011;60524;49.874;8.652;2022-07-11T06:54:53;2.07;;;1.37;;
72501;SDS011;60524;49.874;8.652;2022-07-11T06:57:21;5.97;;;1.40;;
72501;SDS011;60524;49.874;8.652;2022-07-11T06:59:46;8.63;;;1.60;;
72501;SDS011;60524;49.874;8.652;2022-07-11T07:02:18;3.90;;;1.48;;
72501;SDS011;60524;49.874;8.652;2022-07-11T07:04:50;4.38;;;1.63;;
72501;SDS011;60524;49.874;8.652;2022-07-11T07:07:18;1.95;;;1.20;;
72501;SDS011;60524;49.874;8.652;2022-07-11T07:09:44;3.15;;;1.52;;
72501;SDS011;60524;49.874;8.652;2022-07-11T07:12:09;3.15;;;1.10;;
72501;SDS011;60524;49.874;8.652;2022-07-11T07:14:34;6.67;;;1.50;;
72501;SDS011;60524;49.874;8.652;2022-07-11T07:17:00;3.97;;;1.40;;
72501;SDS011;60524;49.874;8.652;2022-07-11T07:19:25;2.72;;;1.30;;
72501;SDS011;60524;49.874;8.652;2022-07-11T07:21:55;5.30;;;1.77;;
72501;SDS011;60524;49.874;8.652;2022-07-11T07:26:50;6.28;;;2.00;;
72501;SDS011;60524;49.874;8.652;2022-07-11T07:29:16;2.83;;;1.30;;
72501;SDS011;60524;49.874;8.652;2022-07-11T07:31:41;5.57;;;1.50;;
72501;SDS011;60524;49.874;8.652;2022-07-11T07:34:09;3.22;;;1.35;;
72501;SDS011;60524;49.874;8.652;2022-07-11T07:36:36;3.22;;;1.30;;
72501;SDS011;60524;49.874;8.652;2022-07-11T07:39:02;4.90;;;1.75;;
72501;SDS011;60524;49.874;8.652;2022-07-11T07:41:27;2.97;;;1.40;;
72501;SDS011;60524;49.874;8.652;2022-07-11T07:43:55;3.80;;;1.63;;
72501;SDS011;60524;49.874;8.652;2022-07-11T07:46:20;8.83;;;1.43;;
72501;SDS011;60524;49.874;8.652;2022-07-11T07:48:48;1.88;;;1.30;;
72501;SDS011;60524;49.874;8.652;2022-07-11T07:51:13;3.53;;;1.20;;
72501;SDS011;60524;49.874;8.652;2022-07-11T07:53:41;5.75;;;1.52;;
72501;SDS011;60524;49.874;8.652;2022-07-11T07:56:06;5.30;;;1.70;;
72501;SDS011;60524;49.874;8.652;2022-07-11T07:58:34;8.32;;;1.65;;
72501;SDS011;60524;49.874;8.652;2022-07-11T08:01:00;2.95;;;1.60;;
72501;SDS011;60524;49.874;8.652;2022-07-11T08:03:46;3.65;;;1.38;;
72501;SDS011;60524;49.874;8.652;2022-07-11T08:06:14;3.20;;;1.80;;
72501;SDS011;60524;49.874;8.652;2022-07-11T08:08:42;3.65;;;1.80;;
72501;SDS011;60524;49.874;8.652;2022-07-11T08:11:07;4.95;;;1.55;;
72501;SDS011;60524;49.874;8.652;2022-07-11T08:13:33;4.32;;;1.80;;
72501;SDS011;60524;49.874;8.652;2022-07-11T08:15:58;2.35;;;1.40;;
72501;SDS011;60524;49.874;8.652;2022-07-11T08:18:23;3.40;;;1.67;;
72501;SDS011;60524;49.874;8.652;2022-07-11T08:20:51;11.30;;;1.70;;
72501;SDS011;60524;49.874;8.652;2022-07-11T08:23:22;3.15;;;1.23;;
72501;SDS011;60524;49.874;8.652;2022-07-11T08:25:48;3.70;;;1.50;;
72501;SDS011;60524;49.874;8.652;2022-07-11T08:28:14;4.53;;;1.98;;
72501;SDS011;60524;49.874;8.652;2022-07-11T08:30:39;3.90;;;1.55;;
72501;SDS011;60524;49.874;8.652;2022-07-11T08:33:10;2.22;;;1.27;;
72501;SDS011;60524;49.874;8.652;2022-07-11T08:35:38;2.67;;;1.48;;
72501;SDS011;60524;49.874;8.652;2022-07-11T08:38:03;3.20;;;1.30;;
72501;SDS011;60524;49.874;8.652;2022-07-11T08:40:29;2.17;;;1.13;;
72501;SDS011;60524;49.874;8.652;2022-07-11T08:42:55;2.42;;;1.10;;
72501;SDS011;60524;49.874;8.652;2022-07-11T08:45:30;5.07;;;1.20;;
72501;SDS011;60524;49.874;8.652;2022-07-11T08:47:58;1.80;;;1.20;;
72501;SDS011;60524;49.874;8.652;2022-07-11T08:50:25;8.70;;;1.73;;
72501;SDS011;60524;49.874;8.652;2022-07-11T08:52:52;2.50;;;1.30;;
72501;SDS011;60524;49.874;8.652;2022-07-11T08:55:19;4.47;;;1.35;;
72501;SDS011;60524;49.874;8.652;2022-07-11T08:57:46;1.98;;;1.23;;
72501;SDS011;60524;49.874;8.652;2022-07-11T09:00:13;2.20;;;1.20;;
72501;SDS011;60524;49.874;8.652;2022-07-11T09:02:41;3.33;;;0.98;;
72501;SDS011;60524;49.874;8.652;2022-07-11T09:05:10;2.20;;;1.20;;
72501;SDS011;60524;49.874;8.652;2022-07-11T09:07:43;3.30;;;1.40;;
72501;SDS011;60524;49.874;8.652;2022-07-11T09:10:12;5.47;;;1.27;;
72501;SDS011;60524;49.874;8.652;2022-07-11T09:15:35;2.95;;;1.33;;
72501;SDS011;60524;49.874;8.652;2022-07-11T09:18:02;2.80;;;1.00;;
72501;SDS011;60524;49.874;8.652;2022-07-11T09:20:29;5.85;;;1.30;;
72501;SDS011;60524;49.874;8.652;2022-07-11T09:23:40;2.47;;;1.50;;
72501;SDS011;60524;49.874;8.652;2022-07-11T09:26:24;4.38;;;1.42;;
72501;SDS011;60524;49.874;8.652;2022-07-11T09:31:32;5.32;;;1.60;;
72501;SDS011;60524;49.874;8.652;2022-07-11T09:34:04;4.25;;;1.75;;
72501;SDS011;60524;49.874;8.652;2022-07-11T09:36:38;2.25;;;1.33;;
72501;SDS011;60524;49.874;8.652;2022-07-11T09:39:04;2.63;;;1.40;;
72501;SDS011;60524;49.874;8.652;2022-07-11T09:41:33;1.95;;;1.27;;
72501;SDS011;60524;49.874;8.652;2022-07-11T09:44:06;1.95;;;1.38;;
72501;SDS011;60524;49.874;8.652;2022-07-11T09:46:32;3.75;;;1.52;;
72501;SDS011;60524;49.874;8.652;2022-07-11T09:48:59;2.22;;;1.45;;
72501;SDS011;60524;49.874;8.652;2022-07-11T09:51:30;3.28;;;1.17;;
72501;SDS011;60524;49.874;8.652;2022-07-11T09:53:57;2.72;;;1.42;;
72501;SDS011;60524;49.874;8.652;2022-07-11T09:56:31;2.58;;;1.33;;
72501;SDS011;60524;49.874;8.652;2022-07-11T09:59:04;2.85;;;1.17;;
72501;SDS011;60524;49.874;8.652;2022-07-11T10:01:32;3.53;;;1.13;;
72501;SDS011;60524;49.874;8.652;2022-07-11T10:03:58;3.33;;;1.17;;
72501;SDS011;60524;49.874;8.652;2022-07-11T10:06:23;5.50;;;1.52;;
72501;SDS011;60524;49.874;8.652;2022-07-11T10:08:53;1.95;;;1.10;;
72501;SDS011;60524;49.874;8.652;2022-07-11T10:11:21;3.03;;;1.40;;
72501;SDS011;60524;49.874;8.652;2022-07-11T10:13:49;4.25;;;1.35;;
72501;SDS011;60524;49.874;8.652;2022-07-11T10:25:04;3.45;;;1.20;;
72501;SDS011;60524;49.874;8.652;2022-07-11T10:30:48;8.10;;;1.17;;
72501;SDS011;60524;49.874;8.652;2022-07-11T10:33:14;1.20;;;0.88;;
72501;SDS011;60524;49.874;8.652;2022-07-11T10:35:41;2.95;;;0.90;;
72501;SDS011;60524;49.874;8.652;2022-07-11T10:38:08;3.50;;;1.63;;
72501;SDS011;60524;49.874;8.652;2022-07-11T10:40:57;3.50;;;1.10;;
72501;SDS011;60524;49.874;8.652;2022-07-11T10:45:58;2.85;;;1.10;;
72501;SDS011;60524;49.874;8.652;2022-07-11T10:48:24;1.90;;;1.00;;
72501;SDS011;60524;49.874;8.652;2022-07-11T10:53:25;2.15;;;1.08;;
72501;SDS011;60524;49.874;8.652;2022-07-11T11:01:44;2.65;;;1.30;;
72501;SDS011;60524;49.874;8.652;2022-07-11T11:09:59;7.97;;;1.42;;
72501;SDS011;60524;49.874;8.652;2022-07-11T11:15:31;1.67;;;0.93;;
72501;SDS011;60524;49.874;8.652;2022-07-11T11:17:59;2.75;;;0.90;;
72501;SDS011;60524;49.874;8.652;2022-07-11T11:23:27;2.30;;;1.00;;
72501;SDS011;60524;49.874;8.652;2022-07-11T11:25:54;1.40;;;0.95;;
72501;SDS011;60524;49.874;8.652;2022-07-11T11:28:22;1.23;;;0.90;;
72501;SDS011;60524;49.874;8.652;2022-07-11T11:30:53;7.60;;;1.10;;
72501;SDS011;60524;49.874;8.652;2022-07-11T11:33:19;5.30;;;1.20;;
72501;SDS011;60524;49.874;8.652;2022-07-11T11:35:45;5.53;;;1.25;;
72501;SDS011;60524;49.874;8.652;2022-07-11T11:38:13;2.65;;;1.35;;
72501;SDS011;60524;49.874;8.652;2022-07-11T11:40:48;4.10;;;1.00;;
72501;SDS011;60524;49.874;8.652;2022-07-11T11:43:20;1.70;;;0.93;;
72501;SDS011;60524;49.874;8.652;2022-07-11T11:45:53;7.00;;;1.10;;
72501;SDS011;60524;49.874;8.652;2022-07-11T11:48:40;1.83;;;0.90;;
72501;SDS011;60524;49.874;8.652;2022-07-11T11:51:17;8.38;;;3.28;;
72501;SDS011;60524;49.874;8.652;2022-07-11T11:53:45;1.30;;;0.88;;
72501;SDS011;60524;49.874;8.652;2022-07-11T11:56:31;2.33;;;1.10;;
72501;SDS011;60524;49.874;8.652;2022-07-11T12:01:37;2.47;;;0.93;;
72501;SDS011;60524;49.874;8.652;2022-07-11T12:04:07;2.00;;;0.98;;
72501;SDS011;60524;49.874;8.652;2022-07-11T12:06:40;5.22;;;1.20;;
72501;SDS011;60524;49.874;8.652;2022-07-11T12:09:14;2.47;;;1.67;;
72501;SDS011;60524;49.874;8.652;2022-07-11T12:11:49;5.32;;;1.20;;
72501;SDS011;60524;49.874;8.652;2022-07-11T12:14:40;2.15;;;1.00;;
72501;SDS011;60524;49.874;8.652;2022-07-11T12:17:07;5.13;;;1.73;;
72501;SDS011;60524;49.874;8.652;2022-07-11T12:19:42;3.20;;;1.10;;
72501;SDS011;60524;49.874;8.652;2022-07-11T12:22:10;1.50;;;0.93;;
72501;SDS011;60524;49.874;8.652;2022-07-11T12:24:38;3.38;;;1.20;;
72501;SDS011;60524;49.874;8.652;2022-07-11T12:27:04;4.60;;;1.50;;
72501;SDS011;60524;49.874;8.652;2022-07-11T12:29:38;4.65;;;1.40;;
72501;SDS011;60524;49.874;8.652;2022-07-11T12:32:13;2.42;;;1.15;;
72501;SDS011;60524;49.874;8.652;2022-07-11T12:34:42;2.30;;;1.15;;
72501;SDS011;60524;49.874;8.652;2022-07-11T12:37:20;3.88;;;1.33;;
72501;SDS011;60524;49.874;8.652;2022-07-11T12:39:56;1.88;;;0.98;;
72501;SDS011;60524;49.874;8.652;2022-07-11T12:45:07;1.90;;;1.10;;
72501;SDS011;60524;49.874;8.652;2022-07-11T12:47:44;1.50;;;0.90;;
72501;SDS011;60524;49.874;8.652;2022-07-11T12:50:27;2.33;;;1.20;;
72501;SDS011;60524;49.874;8.652;2022-07-11T12:52:58;4.95;;;1.08;;
72501;SDS011;60524;49.874;8.652;2022-07-11T12:55:29;3.40;;;1.45;;
72501;SDS011;60524;49.874;8.652;2022-07-11T12:58:13;1.10;;;0.80;;
72501;SDS011;60524;49.874;8.652;2022-07-11T13:00:59;1.77;;;0.90;;
72501;SDS011;60524;49.874;8.652;2022-07-11T13:03:31;4.45;;;0.90;;
72501;SDS011;60524;49.874;8.652;2022-07-11T13:06:00;2.85;;;1.10;;
72501;SDS011;60524;49.874;8.652;2022-07-11T13:08:31;1.45;;;0.90;;
72501;SDS011;60524;49.874;8.652;2022-07-11T13:14:07;2.25;;;1.17;;
72501;SDS011;60524;49.874;8.652;2022-07-11T13:17:32;1.50;;;0.90;;
72501;SDS011;60524;49.874;8.652;2022-07-11T13:20:01;2.00;;;1.10;;
72501;SDS011;60524;49.874;8.652;2022-07-11T13:22:59;2.88;;;0.82;;
72501;SDS011;60524;49.874;8.652;2022-07-11T13:25:51;1.67;;;0.98;;
72501;SDS011;60524;49.874;8.652;2022-07-11T13:28:46;3.97;;;0.98;;
72501;SDS011;60524;49.874;8.652;2022-07-11T13:32:01;1.55;;;0.73;;
72501;SDS011;60524;49.874;8.652;2022-07-11T13:34:47;3.17;;;0.80;;
72501;SDS011;60524;49.874;8.652;2022-07-11T13:37:45;2.67;;;0.70;;
72501;SDS011;60524;49.874;8.652;2022-07-11T13:40:38;1.75;;;0.90;;
72501;SDS011;60524;49.874;8.652;2022-07-11T13:43:06;1.75;;;0.75;;
72501;SDS011;60524;49.874;8.652;2022-07-11T13:45:35;1.50;;;1.00;;
72501;SDS011;60524;49.874;8.652;2022-07-11T13:48:05;1.60;;;0.80;;
72501;SDS011;60524;49.874;8.652;2022-07-11T13:50:36;1.40;;;0.68;;
72501;SDS011;60524;49.874;8.652;2022-07-11T13:53:07;1.40;;;0.70;;
72501;SDS011;60524;49.874;8.652;2022-07-11T13:55:41;1.58;;;0.70;;
72501;SDS011;60524;49.874;8.652;2022-07-11T13:58:09;3.58;;;0.98;;
72501;SDS011;60524;49.874;8.652;2022-07-11T14:00:51;1.80;;;1.00;;
72501;SDS011;60524;49.874;8.652;2022-07-11T14:03:47;1.50;;;0.90;;
72501;SDS011;60524;49.874;8.652;2022-07-11T14:08:45;1.55;;;0.77;;
72501;SDS011;60524;49.874;8.652;2022-07-11T14:14:37;2.03;;;0.98;;
72501;SDS011;60524;49.874;8.652;2022-07-11T14:17:05;3.88;;;1.20;;
72501;SDS011;60524;49.874;8.652;2022-07-11T14:22:57;0.93;;;0.70;;
72501;SDS011;60524;49.874;8.652;2022-07-11T14:25:50;1.58;;;0.90;;
72501;SDS011;60524;49.874;8.652;2022-07-11T14:28:36;4.90;;;0.90;;
72501;SDS011;60524;49.874;8.652;2022-07-11T14:31:38;1.33;;;0.85;;
72501;SDS011;60524;49.874;8.652;2022-07-11T14:34:31;1.90;;;0.90;;
72501;SDS011;60524;49.874;8.652;2022-07-11T14:37:01;1.27;;;0.80;;
72501;SDS011;60524;49.874;8.652;2022-07-11T14:39:35;2.80;;;1.10;;
72501;SDS011;60524;49.874;8.652;2022-07-11T14:42:12;3.90;;;0.90;;
72501;SDS011;60524;49.874;8.652;2022-07-11T14:44:52;1.58;;;0.70;;
72501;SDS011;60524;49.874;8.652;2022-07-11T14:47:38;4.85;;;1.08;;
72501;SDS011;60524;49.874;8.652;2022-07-11T14:50:12;1.52;;;1.00;;
72501;SDS011;60524;49.874;8.652;2022-07-11T14:52:40;1.80;;;0.70;;
72501;SDS011;60524;49.874;8.652;2022-07-11T14:55:16;1.55;;;1.00;;
72501;SDS011;60524;49.874;8.652;2022-07-11T14:57:53;1.92;;;0.80;;
72501;SDS011;60524;49.874;8.652;2022-07-11T15:00:25;1.83;;;1.10;;
72501;SDS011;60524;49.874;8.652;2022-07-11T15:03:11;0.85;;;0.60;;
72501;SDS011;60524;49.874;8.652;2022-07-11T15:09:10;1.75;;;0.80;;
72501;SDS011;60524;49.874;8.652;2022-07-11T15:12:03;1.77;;;0.88;;
72501;SDS011;60524;49.874;8.652;2022-07-11T15:15:09;3.10;;;0.82;;
72501;SDS011;60524;49.874;8.652;2022-07-11T15:17:55;3.65;;;1.13;;
72501;SDS011;60524;49.874;8.652;2022-07-11T15:20:46;1.73;;;0.80;;
72501;SDS011;60524;49.874;8.652;2022-07-11T15:35:24;1.13;;;0.55;;
72501;SDS011;60524;49.874;8.652;2022-07-11T15:37:59;1.25;;;0.75;;
72501;SDS011;60524;49.874;8.652;2022-07-11T15:40:51;3.92;;;0.80;;
72501;SDS011;60524;49.874;8.652;2022-07-11T15:43:20;1.55;;;0.63;;
72501;SDS011;60524;49.874;8.652;2022-07-11T15:45:55;2.83;;;1.00;;
72501;SDS011;60524;49.874;8.652;2022-07-11T15:48:48;2.80;;;0.70;;
72501;SDS011;60524;49.874;8.652;2022-07-11T15:51:44;1.35;;;0.73;;
72501;SDS011;60524;49.874;8.652;2022-07-11T15:57:24;1.42;;;0.80;;
72501;SDS011;60524;49.874;8.652;2022-07-11T16:00:25;3.67;;;1.15;;
72501;SDS011;60524;49.874;8.652;2022-07-11T16:03:02;1.80;;;1.17;;
72501;SDS011;60524;49.874;8.652;2022-07-11T16:05:33;1.50;;;0.93;;
72501;SDS011;60524;49.874;8.652;2022-07-11T16:08:21;2.20;;;1.45;;
72501;SDS011;60524;49.874;8.652;2022-07-11T16:10:49;4.15;;;1.67;;
72501;SDS011;60524;49.874;8.652;2022-07-11T16:13:17;3.90;;;1.20;;
72501;SDS011;60524;49.874;8.652;2022-07-11T16:15:43;1.63;;;0.80;;
72501;SDS011;60524;49.874;8.652;2022-07-11T16:18:14;2.25;;;0.50;;
72501;SDS011;60524;49.874;8.652;2022-07-11T16:20:40;2.08;;;0.77;;
72501;SDS011;60524;49.874;8.652;2022-07-11T16:23:05;1.63;;;0.70;;
72501;SDS011;60524;49.874;8.652;2022-07-11T16:25:33;1.48;;;0.68;;
72501;SDS011;60524;49.874;8.652;2022-07-11T16:28:01;1.67;;;0.82;;
72501;SDS011;60524;49.874;8.652;2022-07-11T16:30:26;1.37;;;0.80;;
72501;SDS011;60524;49.874;8.652;2022-07-11T16:33:03;2.33;;;1.23;;
72501;SDS011;60524;49.874;8.652;2022-07-11T16:35:31;1.75;;;1.10;;
72501;SDS011;60524;49.874;8.652;2022-07-11T16:38:01;1.70;;;0.95;;